CYNL

METAR CYNL 232200Z AUTO 25011G17KT 9SM CLR 31/27 A2980 RMK AO1 SLP073
METAR
LOCATION
CYNL
DATE - TIME
232200Z
WIND
250 TRUE @ 11 KNOTS GUSTS 17 KNOTS
VISIBILITY
9SM
RUNWAY VISUAL RANGE
NOT REPORTED
WEATHER
CLOUDINESS
CLR
TEMP / DEWPOINT
31 ºC / 27 ºC
ALTIMETER
29.80 in. Hg
RECENT WEATHER
NOT REPORTED
WIND SHEAR
NOT REPORTED
REMARKS
RMK AO1 SLP073
SEA LEVEL PRESSURE: hPa

CYNL

SPECI CYNL 232106Z AUTO 26011G22KT 9SM CLR 30/28 A2981 RMK AO1 WSHFT (21)06 SLP073
SPECI
LOCATION
CYNL
DATE - TIME
232106Z
WIND
260 TRUE @ 11 KNOTS GUSTS 22 KNOTS
VISIBILITY
9SM
RUNWAY VISUAL RANGE
NOT REPORTED
WEATHER
CLOUDINESS
CLR
TEMP / DEWPOINT
30 ºC / 28 ºC
ALTIMETER
29.81 in. Hg
RECENT WEATHER
NOT REPORTED
WIND SHEAR
NOT REPORTED
REMARKS
RMK AO1 WSHFT (21)06 SLP073
SEA LEVEL PRESSURE: hPa

CYNL

METAR CYNL 232100Z AUTO 23009G22KT 9SM FEW100 30/27 A2981 RMK AO1 SLP074
METAR
LOCATION
CYNL
DATE - TIME
232100Z
WIND
230 TRUE @ 9 KNOTS GUSTS 22 KNOTS
VISIBILITY
9SM
RUNWAY VISUAL RANGE
NOT REPORTED
WEATHER
CLOUDINESS
FEW100
TEMP / DEWPOINT
30 ºC / 27 ºC
ALTIMETER
29.81 in. Hg
RECENT WEATHER
NOT REPORTED
WIND SHEAR
NOT REPORTED
REMARKS
RMK AO1 SLP074
SEA LEVEL PRESSURE: hPa

Your time UTC time
 
 
Weather data provided by AXYS Technologies Inc., www.axystechnologies.com
 
Station History